This is the latest recevied weather packets stored in our database for station/object CE4ERM-13. If no packets are shown the sender has not sent any weather packets the latest 10 day(s).
| Time | Temp. | Humidity | Pressure | Rain* | Wind** | Luminosity | Snow |
|---|---|---|---|---|---|---|---|
| 1777312338 | 29.44° C | 21% | 1018.3 hPa | - | - | - | - |
| 1777311137 | 28.89° C | 20% | 1018.6 hPa | - | - | - | - |
| 1777310856 | 21.67° C | 27% | 1018.6 hPa | - | - | - | - |
| 1777310536 | 28.89° C | 20% | 1018.2 hPa | - | - | - | - |
| 1777310256 | 21.67° C | 26% | 1019.5 hPa | - | - | - | - |
| 1777309336 | 27.78° C | 23% | 1018.7 hPa | - | - | - | - |
| 1777309055 | 21.11° C | 29% | 1020.5 hPa | - | - | - | - |
| 1777308736 | 30° C | 19% | 1019.6 hPa | - | - | - | - |
| 1777308456 | 20.56° C | 27% | 1020.9 hPa | - | - | - | - |
| 1777308136 | 28.89° C | 20% | 1020.7 hPa | - | - | - | - |
| 1777307856 | 20.56° C | 28% | 1020.5 hPa | - | - | - | - |
| 1777307535 | 29.44° C | 17% | 1019.2 hPa | - | - | - | - |
| 1777307255 | 20° C | 31% | 1020.3 hPa | - | - | - | - |
| 1777306935 | 28.33° C | 20% | 1019.5 hPa | - | - | - | - |
| 1777306654 | 19.44° C | 33% | 1019.6 hPa | - | - | - | - |
| 1777306335 | 27.22° C | 23% | 1019.2 hPa | - | - | - | - |
| 1777305734 | 27.78° C | 22% | 1019.4 hPa | - | - | - | - |
| 1777305133 | 26.67° C | 24% | 1018.7 hPa | - | - | - | - |
| 1777304853 | 18.89° C | 35% | 1019.7 hPa | - | - | - | - |
| 1777304533 | 26.11° C | 24% | 1019.9 hPa | - | - | - | - |
| 1777304253 | 18.33° C | 36% | 1020.8 hPa | - | - | - | - |
| 1777303933 | 24.44° C | 26% | 1020.6 hPa | - | - | - | - |
| 1777303653 | 17.78° C | 37% | 1020.3 hPa | - | - | - | - |
| 1777303332 | 22.78° C | 30% | 1019.8 hPa | - | - | - | - |
| 1777302732 | 22.22° C | 29% | 1019.9 hPa | - | - | - | - |
* Rain since midnight (hover to see other rain measurements)
** Current wind speed in m/s (hover to see current wind gust speed)